createdAt,value
2023-06-29T00:00:28.620Z,95177.00
2023-06-29T00:01:28.734Z,95177.00
2023-06-29T00:02:28.736Z,95179.00
2023-06-29T00:03:28.840Z,95179.00
2023-06-29T00:04:28.792Z,95177.00
2023-06-29T00:05:28.896Z,95179.00
2023-06-29T00:06:28.918Z,95181.00
2023-06-29T00:07:28.946Z,95179.00
2023-06-29T00:08:28.972Z,95179.00
2023-06-29T00:09:29.015Z,95177.00
2023-06-29T00:10:29.069Z,95177.00
2023-06-29T00:11:29.071Z,95177.00
2023-06-29T00:12:29.160Z,95177.00
2023-06-29T00:13:29.193Z,95179.00
2023-06-29T00:14:29.241Z,95181.00
2023-06-29T00:15:29.252Z,95181.00
2023-06-29T00:16:29.367Z,95179.00
2023-06-29T00:17:29.388Z,95177.00
2023-06-29T00:18:29.463Z,95179.00
2023-06-29T00:19:29.477Z,95177.00
2023-06-29T00:20:29.547Z,95179.00
2023-06-29T00:21:29.674Z,95175.00
2023-06-29T00:22:29.736Z,95177.00
2023-06-29T00:23:29.622Z,95175.00
2023-06-29T00:24:29.660Z,95173.00
2023-06-29T00:25:29.686Z,95173.00
2023-06-29T00:26:29.750Z,95175.00
2023-06-29T00:27:29.786Z,95175.00
2023-06-29T00:28:29.817Z,95175.00
2023-06-29T00:29:29.860Z,95177.00
2023-06-29T00:30:30.001Z,95177.00
2023-06-29T00:31:29.967Z,95181.00
2023-06-29T00:32:30.076Z,95183.00
2023-06-29T00:33:30.090Z,95177.00
2023-06-29T00:34:30.117Z,95179.00
2023-06-29T00:35:30.164Z,95177.00
2023-06-29T00:36:30.228Z,95175.00
2023-06-29T00:37:30.238Z,95175.00
2023-06-29T00:38:30.330Z,95171.00
2023-06-29T00:39:30.354Z,95169.00
2023-06-29T00:40:30.369Z,95169.00
2023-06-29T00:41:30.412Z,95171.00
2023-06-29T00:42:30.489Z,95173.00
2023-06-29T00:43:30.602Z,95175.00
2023-06-29T00:44:30.606Z,95175.00
2023-06-29T00:45:30.644Z,95175.00
2023-06-29T00:46:30.755Z,95173.00
2023-06-29T00:47:30.764Z,95173.00
2023-06-29T00:48:30.805Z,95175.00
2023-06-29T00:49:30.869Z,95173.00
2023-06-29T00:50:30.924Z,95175.00
2023-06-29T00:51:30.965Z,95171.00
2023-06-29T00:52:30.973Z,95173.00
2023-06-29T00:53:31.009Z,95173.00
2023-06-29T00:54:31.085Z,95173.00
2023-06-29T00:55:31.129Z,95173.00
2023-06-29T00:56:31.165Z,95173.00
2023-06-29T00:57:31.238Z,95173.00
2023-06-29T00:58:31.289Z,95173.00
2023-06-29T00:59:31.326Z,95171.00
2023-06-29T01:00:31.422Z,95169.00
2023-06-29T01:01:31.462Z,95165.00
2023-06-29T01:02:31.652Z,95165.00
2023-06-29T01:03:31.656Z,95165.00
2023-06-29T01:04:31.637Z,95167.00
2023-06-29T01:05:31.675Z,95167.00
2023-06-29T01:06:31.701Z,95165.00
2023-06-29T01:07:31.872Z,95161.00
2023-06-29T01:08:31.819Z,95161.00
2023-06-29T01:09:31.944Z,95159.00
2023-06-29T01:10:31.912Z,95161.00
2023-06-29T01:11:31.988Z,95161.00
2023-06-29T01:12:32.036Z,95159.00
2023-06-29T01:13:32.111Z,95161.00
2023-06-29T01:14:32.167Z,95159.00
2023-06-29T01:15:32.225Z,95159.00
2023-06-29T01:16:32.293Z,95159.00
2023-06-29T01:17:32.420Z,95159.00
2023-06-29T01:18:32.404Z,95157.00
2023-06-29T01:19:32.476Z,95157.00
2023-06-29T01:20:32.541Z,95155.00
2023-06-29T01:21:32.570Z,95155.00
2023-06-29T01:22:32.690Z,95151.00
2023-06-29T01:23:32.816Z,95151.00
2023-06-29T01:24:32.753Z,95151.00
2023-06-29T01:25:32.805Z,95143.00
2023-06-29T01:26:32.832Z,95151.00
2023-06-29T01:27:32.924Z,95143.00
2023-06-29T01:28:32.996Z,95143.00
2023-06-29T01:29:33.046Z,95151.00
2023-06-29T01:30:33.588Z,95151.00
2023-06-29T01:31:33.162Z,95141.00
2023-06-29T01:32:33.202Z,95151.00
2023-06-29T01:33:33.278Z,95143.00
2023-06-29T01:34:33.341Z,95143.00
2023-06-29T01:35:33.392Z,95143.00
2023-06-29T01:36:33.424Z,95139.00
2023-06-29T01:37:33.465Z,95139.00
2023-06-29T01:38:33.547Z,95139.00
2023-06-29T01:39:33.625Z,95139.00
2023-06-29T01:40:33.734Z,95136.00
2023-06-29T01:41:33.749Z,95139.00
2023-06-29T01:42:33.793Z,95137.00
2023-06-29T01:43:33.868Z,95139.00
2023-06-29T01:44:33.914Z,95137.00
2023-06-29T01:45:33.962Z,95137.00
2023-06-29T01:46:34.222Z,95137.00
2023-06-29T01:47:34.149Z,95136.00
2023-06-29T01:48:34.164Z,95137.00
2023-06-29T01:49:34.194Z,95136.00
2023-06-29T01:50:34.258Z,95136.00
2023-06-29T01:51:34.322Z,95136.00
2023-06-29T01:52:34.375Z,95136.00
2023-06-29T01:53:34.426Z,95136.00
2023-06-29T01:54:34.524Z,95134.00
2023-06-29T01:55:34.550Z,95136.00
2023-06-29T01:56:34.599Z,95136.00
2023-06-29T01:57:34.665Z,95130.00
2023-06-29T01:58:34.686Z,95132.00
2023-06-29T01:59:34.770Z,95132.00
2023-06-29T02:00:37.073Z,95130.00
2023-06-29T02:01:34.994Z,95132.00
2023-06-29T02:02:34.883Z,95130.00
2023-06-29T02:03:34.986Z,95130.00
2023-06-29T02:04:34.810Z,95130.00
2023-06-29T02:05:34.808Z,95130.00
2023-06-29T02:06:34.796Z,95130.00
2023-06-29T02:07:34.848Z,95126.00
2023-06-29T02:08:34.796Z,95130.00
2023-06-29T02:09:34.765Z,95128.00
2023-06-29T02:10:34.782Z,95130.00
2023-06-29T02:11:34.737Z,95126.00
2023-06-29T02:12:34.760Z,95126.00
2023-06-29T02:13:34.715Z,95126.00
2023-06-29T02:14:34.755Z,95124.00
2023-06-29T02:15:34.722Z,95120.00
2023-06-29T02:16:34.869Z,95126.00
2023-06-29T02:17:34.745Z,95120.00
2023-06-29T02:18:34.712Z,95120.00
2023-06-29T02:19:34.711Z,95122.00
2023-06-29T02:20:34.701Z,95122.00
2023-06-29T02:21:34.710Z,95122.00
2023-06-29T02:22:34.680Z,95122.00
2023-06-29T02:23:34.684Z,95120.00
2023-06-29T02:24:34.676Z,95120.00
2023-06-29T02:25:34.642Z,95116.00
2023-06-29T02:26:34.648Z,95116.00
2023-06-29T02:27:34.645Z,95118.00
2023-06-29T02:28:34.720Z,95116.00
2023-06-29T02:29:34.760Z,95116.00
2023-06-29T02:30:34.833Z,95120.00
2023-06-29T02:31:34.917Z,95118.00
2023-06-29T02:32:34.961Z,95120.00
2023-06-29T02:33:35.008Z,95118.00
2023-06-29T02:34:35.083Z,95118.00
2023-06-29T02:35:35.141Z,95118.00
2023-06-29T02:36:35.176Z,95122.00
2023-06-29T02:37:35.280Z,95120.00
2023-06-29T02:38:35.350Z,95120.00
2023-06-29T02:39:35.352Z,95120.00
2023-06-29T02:40:35.418Z,95122.00
2023-06-29T02:41:35.505Z,95126.00
2023-06-29T02:42:35.541Z,95124.00
2023-06-29T02:43:35.659Z,95126.00
2023-06-29T02:44:35.703Z,95124.00
2023-06-29T02:45:35.808Z,95128.00
2023-06-29T02:46:35.843Z,95126.00
2023-06-29T02:47:35.928Z,95126.00
2023-06-29T02:48:35.957Z,95126.00
2023-06-29T02:49:35.987Z,95126.00
2023-06-29T02:50:36.040Z,95128.00
2023-06-29T02:51:36.119Z,95126.00
2023-06-29T02:52:36.183Z,95130.00
2023-06-29T02:53:36.243Z,95128.00
2023-06-29T02:54:36.333Z,95128.00
2023-06-29T02:55:36.360Z,95126.00
2023-06-29T02:56:36.489Z,95126.00
2023-06-29T02:57:36.445Z,95126.00
2023-06-29T02:58:36.520Z,95126.00
2023-06-29T02:59:36.612Z,95128.00
2023-06-29T03:00:36.641Z,95130.00
2023-06-29T03:01:36.731Z,95130.00
2023-06-29T03:02:36.833Z,95130.00
2023-06-29T03:03:36.836Z,95130.00
2023-06-29T03:04:36.857Z,95130.00
2023-06-29T03:05:36.943Z,95130.00
2023-06-29T03:06:36.978Z,95128.00
2023-06-29T03:07:37.114Z,95130.00
2023-06-29T03:08:37.070Z,95130.00
2023-06-29T03:09:37.192Z,95128.00
2023-06-29T03:10:37.242Z,95130.00
2023-06-29T03:11:37.211Z,95132.00
2023-06-29T03:12:37.221Z,95130.00
2023-06-29T03:13:37.249Z,95132.00
2023-06-29T03:14:37.325Z,95132.00
2023-06-29T03:15:37.332Z,95130.00
2023-06-29T03:16:37.414Z,95132.00
2023-06-29T03:17:37.402Z,95132.00
2023-06-29T03:18:37.369Z,95130.00
2023-06-29T03:19:37.469Z,95130.00
2023-06-29T03:20:37.427Z,95130.00
2023-06-29T03:21:37.462Z,95130.00
2023-06-29T03:22:37.644Z,95132.00
2023-06-29T03:23:37.556Z,95126.00
2023-06-29T03:24:37.566Z,95130.00
2023-06-29T03:25:37.570Z,95126.00
2023-06-29T03:26:37.609Z,95128.00
2023-06-29T03:27:37.681Z,95126.00
2023-06-29T03:28:37.618Z,95126.00
2023-06-29T03:29:37.709Z,95124.00
2023-06-29T03:30:37.721Z,95126.00
2023-06-29T03:31:37.766Z,95124.00
2023-06-29T03:32:37.784Z,95124.00
2023-06-29T03:33:37.768Z,95124.00
2023-06-29T03:34:37.778Z,95126.00
2023-06-29T03:35:37.842Z,95126.00
2023-06-29T03:36:37.861Z,95126.00
2023-06-29T03:37:37.907Z,95130.00
2023-06-29T03:38:37.901Z,95128.00
2023-06-29T03:39:37.916Z,95128.00
2023-06-29T03:40:37.978Z,95128.00
2023-06-29T03:41:37.988Z,95130.00
2023-06-29T03:42:37.943Z,95128.00
2023-06-29T03:43:37.992Z,95128.00
2023-06-29T03:44:38.150Z,95128.00
2023-06-29T03:45:38.060Z,95128.00
2023-06-29T03:46:38.071Z,95132.00
2023-06-29T03:47:38.194Z,95130.00
2023-06-29T03:48:38.241Z,95132.00
2023-06-29T03:49:38.245Z,95130.00
2023-06-29T03:50:38.251Z,95132.00
2023-06-29T03:51:38.257Z,95130.00
2023-06-29T03:52:38.279Z,95130.00
2023-06-29T03:53:38.314Z,95130.00
2023-06-29T03:54:38.308Z,95130.00
2023-06-29T03:55:38.318Z,95128.00
2023-06-29T03:56:38.396Z,95128.00
2023-06-29T03:57:38.388Z,95130.00
2023-06-29T03:58:38.438Z,95130.00
2023-06-29T03:59:38.415Z,95132.00
2023-06-29T04:00:38.464Z,95132.00
2023-06-29T04:01:38.708Z,95128.00
2023-06-29T04:02:38.515Z,95128.00
2023-06-29T04:03:38.624Z,95128.00
2023-06-29T04:04:38.545Z,95130.00
2023-06-29T04:05:38.565Z,95128.00
2023-06-29T04:06:38.557Z,95128.00
2023-06-29T04:07:38.619Z,95126.00
2023-06-29T04:08:38.670Z,95126.00
2023-06-29T04:09:38.696Z,95126.00
2023-06-29T04:10:38.736Z,95128.00
2023-06-29T04:11:38.805Z,95126.00
2023-06-29T04:12:38.871Z,95124.00
2023-06-29T04:13:38.864Z,95126.00
2023-06-29T04:14:38.882Z,95124.00
2023-06-29T04:15:38.967Z,95126.00
2023-06-29T04:16:39.080Z,95126.00
2023-06-29T04:17:39.057Z,95124.00
2023-06-29T04:18:39.137Z,95126.00
2023-06-29T04:19:39.122Z,95124.00
2023-06-29T04:20:39.209Z,95120.00
2023-06-29T04:21:39.301Z,95122.00
2023-06-29T04:22:39.316Z,95122.00
2023-06-29T04:23:39.432Z,95122.00
2023-06-29T04:24:39.465Z,95122.00
2023-06-29T04:25:39.472Z,95122.00
2023-06-29T04:26:39.559Z,95124.00
2023-06-29T04:27:39.626Z,95124.00
2023-06-29T04:28:39.672Z,95122.00
2023-06-29T04:29:39.675Z,95124.00
2023-06-29T04:30:39.763Z,95124.00
2023-06-29T04:31:39.845Z,95124.00
2023-06-29T04:32:40.052Z,95120.00
2023-06-29T04:33:39.912Z,95122.00
2023-06-29T04:34:39.937Z,95120.00
2023-06-29T04:35:40.012Z,95120.00
2023-06-29T04:36:40.029Z,95122.00
2023-06-29T04:37:40.115Z,95124.00
2023-06-29T04:38:40.211Z,95124.00
2023-06-29T04:39:40.222Z,95122.00
2023-06-29T04:40:40.278Z,95120.00
2023-06-29T04:41:40.641Z,95122.00
2023-06-29T04:42:40.385Z,95120.00
2023-06-29T04:43:40.522Z,95120.00
2023-06-29T04:44:40.497Z,95124.00
2023-06-29T04:45:40.615Z,95116.00
2023-06-29T04:46:40.810Z,95120.00
2023-06-29T04:47:40.823Z,95118.00
2023-06-29T04:48:40.752Z,95118.00
2023-06-29T04:49:40.952Z,95118.00
2023-06-29T04:50:40.908Z,95116.00
2023-06-29T04:51:40.988Z,95116.00
2023-06-29T04:52:41.025Z,95114.00
2023-06-29T04:53:41.076Z,95114.00
2023-06-29T04:54:41.146Z,95114.00
2023-06-29T04:55:41.336Z,95108.00
2023-06-29T04:56:41.224Z,95106.00
2023-06-29T04:57:41.296Z,95108.00
2023-06-29T04:58:41.377Z,95108.00
2023-06-29T04:59:41.424Z,95110.00
2023-06-29T05:00:41.501Z,95108.00
2023-06-29T05:01:41.576Z,95112.00
2023-06-29T05:02:41.698Z,95110.00
2023-06-29T05:03:41.693Z,95106.00
2023-06-29T05:04:41.732Z,95110.00
2023-06-29T05:05:42.032Z,95108.00
2023-06-29T05:06:41.850Z,95106.00
2023-06-29T05:07:41.923Z,95104.00
2023-06-29T05:08:41.972Z,95104.00
2023-06-29T05:09:42.039Z,95102.00
2023-06-29T05:10:42.136Z,95106.00
2023-06-29T05:11:42.193Z,95104.00
2023-06-29T05:12:42.182Z,95102.00
2023-06-29T05:13:42.242Z,95100.00
2023-06-29T05:14:42.299Z,95100.00
2023-06-29T05:15:42.567Z,95098.00
2023-06-29T05:16:42.476Z,95098.00
2023-06-29T05:17:42.500Z,95094.00
2023-06-29T05:18:42.541Z,95092.00
2023-06-29T05:19:42.607Z,95092.00
2023-06-29T05:20:42.661Z,95089.00
2023-06-29T05:21:42.706Z,95089.00
2023-06-29T05:22:42.745Z,95090.00
2023-06-29T05:23:42.824Z,95087.00
2023-06-29T05:24:42.884Z,95089.00
2023-06-29T05:25:43.171Z,95087.00
2023-06-29T05:26:42.950Z,95089.00
2023-06-29T05:27:43.004Z,95083.00
2023-06-29T05:28:49.836Z,95085.00
2023-06-29T05:29:44.053Z,95083.00
2023-06-29T05:30:43.055Z,95083.00
2023-06-29T05:31:43.095Z,95079.00
2023-06-29T05:32:43.157Z,95079.00
2023-06-29T05:33:43.116Z,95079.00
2023-06-29T05:34:43.013Z,95077.00
2023-06-29T05:35:43.217Z,95077.00
2023-06-29T05:36:43.017Z,95071.00
2023-06-29T05:37:43.005Z,95069.00
2023-06-29T05:38:42.984Z,95073.00
2023-06-29T05:39:42.985Z,95067.00
2023-06-29T05:40:43.399Z,95071.00
2023-06-29T05:41:42.963Z,95069.00
2023-06-29T05:42:43.026Z,95073.00
2023-06-29T05:43:43.052Z,95075.00
2023-06-29T05:44:43.067Z,95069.00
2023-06-29T05:45:43.161Z,95067.00
2023-06-29T05:46:43.103Z,95071.00
2023-06-29T05:47:43.261Z,95067.00
2023-06-29T05:48:43.152Z,95069.00
2023-06-29T05:49:43.119Z,95067.00
2023-06-29T05:50:43.332Z,95069.00
2023-06-29T05:51:43.235Z,95067.00
2023-06-29T05:52:43.110Z,95071.00
2023-06-29T05:53:43.129Z,95075.00
2023-06-29T05:54:43.128Z,95073.00
2023-06-29T05:55:43.197Z,95067.00
2023-06-29T05:56:43.255Z,95065.00
2023-06-29T05:57:43.285Z,95065.00
2023-06-29T05:58:43.362Z,95063.00
2023-06-29T05:59:43.380Z,95067.00
2023-06-29T06:00:43.638Z,95067.00
2023-06-29T06:01:43.660Z,95065.00
2023-06-29T06:02:43.558Z,95063.00
2023-06-29T06:03:43.523Z,95063.00
2023-06-29T06:04:43.516Z,95059.00
2023-06-29T06:05:43.472Z,95065.00
2023-06-29T06:06:43.482Z,95059.00
2023-06-29T06:07:43.495Z,95057.00
2023-06-29T06:08:43.535Z,95061.00
2023-06-29T06:09:43.608Z,95059.00
2023-06-29T06:10:43.752Z,95061.00
2023-06-29T06:11:43.654Z,95057.00
2023-06-29T06:12:43.687Z,95059.00
2023-06-29T06:13:43.774Z,95057.00
2023-06-29T06:14:43.895Z,95061.00
2023-06-29T06:15:43.919Z,95061.00
2023-06-29T06:16:44.248Z,95061.00
2023-06-29T06:17:44.109Z,95059.00
2023-06-29T06:18:44.024Z,95061.00
2023-06-29T06:19:44.082Z,95059.00
2023-06-29T06:20:44.453Z,95057.00
2023-06-29T06:21:44.203Z,95053.00
2023-06-29T06:22:44.215Z,95057.00
2023-06-29T06:23:44.330Z,95055.00
2023-06-29T06:24:44.262Z,95055.00
2023-06-29T06:25:44.332Z,95057.00
2023-06-29T06:26:44.346Z,95055.00
2023-06-29T06:27:44.413Z,95049.00
2023-06-29T06:28:44.384Z,95055.00
2023-06-29T06:29:44.449Z,95053.00
2023-06-29T06:30:44.669Z,95047.00
2023-06-29T06:31:44.643Z,95049.00
2023-06-29T06:32:44.666Z,95049.00
2023-06-29T06:33:44.583Z,95047.00
2023-06-29T06:34:44.591Z,95047.00
2023-06-29T06:35:44.650Z,95049.00
2023-06-29T06:36:44.640Z,95045.00
2023-06-29T06:37:44.660Z,95047.00
2023-06-29T06:38:49.994Z,95047.00
2023-06-29T06:39:45.688Z,95042.00
2023-06-29T06:40:45.128Z,95042.00
2023-06-29T06:41:44.645Z,95040.00
2023-06-29T06:42:44.644Z,95040.00
2023-06-29T06:43:44.651Z,95036.00
2023-06-29T06:44:44.623Z,95038.00
2023-06-29T06:45:44.610Z,95032.00
2023-06-29T06:46:44.716Z,95032.00
2023-06-29T06:47:44.768Z,95030.00
2023-06-29T06:48:44.588Z,95030.00
2023-06-29T06:49:44.593Z,95028.00
2023-06-29T06:50:44.753Z,95026.00
2023-06-29T06:51:44.614Z,95024.00
2023-06-29T06:52:44.577Z,95020.00
2023-06-29T06:53:44.546Z,95020.00
2023-06-29T06:54:44.617Z,95018.00
2023-06-29T06:55:44.686Z,95018.00
2023-06-29T06:56:44.712Z,95016.00
2023-06-29T06:57:44.689Z,95016.00
2023-06-29T06:58:44.699Z,95012.00
2023-06-29T06:59:44.701Z,95012.00
2023-06-29T07:00:44.918Z,95014.00
2023-06-29T07:01:44.743Z,95012.00
2023-06-29T07:02:44.811Z,95008.00
2023-06-29T07:03:44.728Z,95008.00
2023-06-29T07:04:44.730Z,95008.00
2023-06-29T07:05:44.909Z,95010.00
2023-06-29T07:06:44.822Z,95004.00
2023-06-29T07:07:44.853Z,95000.00
2023-06-29T07:08:44.983Z,95000.00
2023-06-29T07:09:45.005Z,94996.00
2023-06-29T07:10:45.297Z,94994.00
2023-06-29T07:11:45.253Z,94991.00
2023-06-29T07:12:45.149Z,94992.00
2023-06-29T07:13:45.293Z,94983.00
2023-06-29T07:14:45.214Z,94987.00
2023-06-29T07:15:45.271Z,94985.00
2023-06-29T07:16:45.347Z,94983.00
2023-06-29T07:17:45.331Z,94981.00
2023-06-29T07:18:45.345Z,94979.00
2023-06-29T07:24:06.178Z,94973.00
2023-06-29T07:24:45.351Z,94969.00
2023-06-29T07:25:45.637Z,94967.00
2023-06-29T07:26:45.291Z,94963.00
2023-06-29T07:27:45.314Z,94961.00
2023-06-29T07:28:45.453Z,94959.00
2023-06-29T07:29:45.329Z,94961.00
2023-06-29T07:30:45.343Z,94959.00
2023-06-29T07:31:45.307Z,94957.00
2023-06-29T07:32:45.379Z,94955.00
2023-06-29T07:33:45.251Z,94957.00
2023-06-29T07:34:45.265Z,94953.00
2023-06-29T07:35:45.562Z,94953.00
2023-06-29T07:36:45.714Z,94949.00
2023-06-29T07:37:45.232Z,94949.00
2023-06-29T07:38:45.186Z,94947.00
2023-06-29T07:39:45.245Z,94945.00
2023-06-29T07:40:46.536Z,94943.00
2023-06-29T07:41:45.237Z,94943.00
2023-06-29T07:42:45.208Z,94941.00
2023-06-29T07:43:45.270Z,94943.00
2023-06-29T07:44:45.191Z,94940.00
2023-06-29T07:45:45.343Z,94941.00
2023-06-29T07:46:45.183Z,94940.00
2023-06-29T07:47:45.262Z,94940.00
2023-06-29T07:48:45.264Z,94938.00
2023-06-29T07:49:45.157Z,94936.00
2023-06-29T07:50:45.104Z,94934.00
2023-06-29T07:51:45.109Z,94932.00
2023-06-29T07:52:45.113Z,94930.00
2023-06-29T07:53:45.129Z,94928.00
2023-06-29T07:54:45.124Z,94928.00
2023-06-29T07:55:45.243Z,94930.00
2023-06-29T07:58:45.124Z,94928.00
2023-06-29T07:59:45.121Z,94926.00
2023-06-29T08:00:45.177Z,94928.00
2023-06-29T08:01:45.122Z,94926.00
2023-06-29T08:02:45.169Z,94922.00
2023-06-29T08:04:01.078Z,94924.00
2023-06-29T08:06:51.328Z,94922.00
2023-06-29T08:07:46.157Z,94920.00
2023-06-29T08:08:45.248Z,94912.00
2023-06-29T08:09:45.045Z,94916.00
2023-06-29T08:10:45.176Z,94912.00
2023-06-29T08:11:45.012Z,94912.00
2023-06-29T08:12:45.011Z,94912.00
2023-06-29T08:13:45.020Z,94908.00
2023-06-29T08:14:45.043Z,94908.00
2023-06-29T08:15:44.968Z,94908.00
2023-06-29T08:16:44.997Z,94906.00
2023-06-29T08:17:45.028Z,94898.00
2023-06-29T08:18:45.175Z,94896.00
2023-06-29T08:19:44.918Z,94894.00
2023-06-29T08:20:45.150Z,94896.00
2023-06-29T08:21:44.918Z,94894.00
2023-06-29T08:22:44.935Z,94887.00
2023-06-29T08:23:44.942Z,94894.00
2023-06-29T08:24:44.900Z,94887.00
2023-06-29T08:25:44.935Z,94887.00
2023-06-29T08:26:45.663Z,94885.00
2023-06-29T08:27:45.004Z,94881.00
2023-06-29T08:28:45.071Z,94879.00
2023-06-29T08:29:45.076Z,94879.00
2023-06-29T08:30:45.255Z,94875.00
2023-06-29T08:31:45.217Z,94873.00
2023-06-29T08:32:45.257Z,94871.00
2023-06-29T08:33:45.319Z,94869.00
2023-06-29T08:34:45.307Z,94869.00
2023-06-29T08:35:45.342Z,94869.00
2023-06-29T08:36:45.418Z,94865.00
2023-06-29T08:37:45.447Z,94867.00
2023-06-29T08:38:45.533Z,94865.00
2023-06-29T08:39:45.602Z,94857.00
2023-06-29T08:40:45.843Z,94857.00
2023-06-29T08:41:45.745Z,94857.00
2023-06-29T08:42:45.724Z,94855.00
2023-06-29T08:43:45.739Z,94853.00
2023-06-29T08:44:45.799Z,94853.00
2023-06-29T08:45:45.806Z,94851.00
2023-06-29T08:46:45.876Z,94851.00
2023-06-29T08:47:45.922Z,94853.00
2023-06-29T08:48:45.964Z,94851.00
2023-06-29T08:49:46.015Z,94849.00
2023-06-29T08:50:46.213Z,94848.00
2023-06-29T08:51:46.135Z,94844.00
2023-06-29T08:52:46.240Z,94840.00
2023-06-29T08:53:46.257Z,94842.00
2023-06-29T08:54:46.285Z,94836.00
2023-06-29T08:55:46.381Z,94836.00
2023-06-29T08:56:46.427Z,94828.00
2023-06-29T08:57:46.516Z,94830.00
2023-06-29T08:58:46.506Z,94832.00
2023-06-29T08:59:46.666Z,94830.00
2023-06-29T09:00:46.943Z,94826.00
2023-06-29T09:01:46.621Z,94826.00
2023-06-29T09:02:46.827Z,94828.00
2023-06-29T09:03:46.912Z,94826.00
2023-06-29T09:04:46.765Z,94824.00
2023-06-29T09:05:46.963Z,94822.00
2023-06-29T09:06:46.857Z,94814.00
2023-06-29T09:07:46.943Z,94816.00
2023-06-29T09:08:47.036Z,94812.00
2023-06-29T09:09:46.982Z,94812.00
2023-06-29T09:10:47.071Z,94804.00
2023-06-29T09:11:47.008Z,94806.00
2023-06-29T09:12:47.029Z,94802.00
2023-06-29T09:13:47.104Z,94804.00
2023-06-29T09:14:47.191Z,94802.00
2023-06-29T09:15:47.197Z,94804.00
2023-06-29T09:16:47.146Z,94800.00
2023-06-29T09:17:47.453Z,94796.00
2023-06-29T09:18:47.255Z,94794.00
2023-06-29T09:19:47.270Z,94794.00
2023-06-29T09:20:47.525Z,94793.00
2023-06-29T09:21:48.298Z,94796.00
2023-06-29T09:22:47.444Z,94793.00
2023-06-29T09:23:49.238Z,94789.00
2023-06-29T09:25:01.462Z,94787.00
2023-06-29T09:25:48.472Z,94787.00
2023-06-29T09:26:47.777Z,94785.00
2023-06-29T09:27:47.376Z,94783.00
2023-06-29T09:28:47.373Z,94779.00
2023-06-29T09:29:47.377Z,94775.00
2023-06-29T09:30:47.452Z,94773.00
2023-06-29T09:31:47.903Z,94773.00
2023-06-29T09:32:47.389Z,94769.00
2023-06-29T09:33:47.856Z,94771.00
2023-06-29T09:34:47.366Z,94769.00
2023-06-29T09:35:47.492Z,94765.00
2023-06-29T09:36:47.329Z,94765.00
2023-06-29T09:37:47.289Z,94761.00
2023-06-29T09:38:47.285Z,94759.00
2023-06-29T09:39:47.308Z,94763.00
2023-06-29T09:40:47.362Z,94759.00
2023-06-29T09:41:47.338Z,94759.00
2023-06-29T09:42:47.820Z,94755.00
2023-06-29T09:43:47.328Z,94753.00
2023-06-29T09:44:47.336Z,94751.00
2023-06-29T09:45:47.730Z,94747.00
2023-06-29T09:49:06.577Z,94749.00
2023-06-29T09:49:47.420Z,94740.00
2023-06-29T09:50:47.772Z,94740.00
2023-06-29T09:51:47.324Z,94740.00
2023-06-29T09:52:47.368Z,94736.00
2023-06-29T09:53:47.324Z,94734.00
2023-06-29T09:54:47.821Z,94734.00
2023-06-29T09:55:47.318Z,94732.00
2023-06-29T09:56:47.304Z,94728.00
2023-06-29T09:57:47.307Z,94726.00
2023-06-29T09:58:47.748Z,94724.00
2023-06-29T09:59:47.335Z,94722.00
2023-06-29T10:00:47.514Z,94722.00
2023-06-29T10:01:47.288Z,94722.00
2023-06-29T10:02:47.354Z,94720.00
2023-06-29T10:03:47.286Z,94718.00
2023-06-29T10:04:47.301Z,94718.00
2023-06-29T10:05:47.263Z,94712.00
2023-06-29T10:06:47.371Z,94716.00
2023-06-29T10:07:47.301Z,94714.00
2023-06-29T10:08:47.224Z,94712.00
2023-06-29T10:09:47.186Z,94708.00
2023-06-29T10:10:47.308Z,94708.00
2023-06-29T10:11:47.197Z,94706.00
2023-06-29T10:12:47.217Z,94706.00
2023-06-29T10:13:47.224Z,94702.00
2023-06-29T10:14:47.285Z,94700.00
2023-06-29T10:15:47.193Z,94697.00
2023-06-29T10:16:47.202Z,94695.00
2023-06-29T10:17:47.178Z,94695.00
2023-06-29T10:18:47.220Z,94693.00
2023-06-29T10:19:47.339Z,94691.00
2023-06-29T10:20:47.366Z,94693.00
2023-06-29T10:21:47.136Z,94689.00
2023-06-29T10:22:47.179Z,94687.00
2023-06-29T10:23:47.204Z,94685.00
2023-06-29T10:24:47.116Z,94681.00
2023-06-29T10:25:47.119Z,94681.00
2023-06-29T10:26:47.328Z,94681.00
2023-06-29T10:27:47.112Z,94681.00
2023-06-29T10:28:47.095Z,94679.00
2023-06-29T10:29:47.045Z,94679.00
2023-06-29T10:30:47.277Z,94677.00
2023-06-29T10:31:47.059Z,94677.00
2023-06-29T10:32:47.077Z,94675.00
2023-06-29T10:33:47.282Z,94671.00
2023-06-29T10:34:47.082Z,94669.00
2023-06-29T10:35:47.039Z,94669.00
2023-06-29T10:36:47.106Z,94667.00
2023-06-29T10:37:47.019Z,94665.00
2023-06-29T10:38:47.304Z,94665.00
2023-06-29T10:39:46.997Z,94661.00
2023-06-29T10:41:48.020Z,94659.00
2023-06-29T10:42:47.102Z,94657.00
2023-06-29T10:43:47.171Z,94659.00
2023-06-29T10:44:47.217Z,94657.00
2023-06-29T10:45:47.273Z,94657.00
2023-06-29T10:46:47.470Z,94655.00
2023-06-29T10:47:47.473Z,94655.00
2023-06-29T10:48:49.115Z,94657.00
2023-06-29T10:49:47.498Z,94657.00
2023-06-29T10:50:47.645Z,94653.00
2023-06-29T10:51:47.747Z,94655.00
2023-06-29T10:52:47.689Z,94651.00
2023-06-29T10:53:47.813Z,94651.00
2023-06-29T10:54:47.968Z,94651.00
2023-06-29T10:55:47.826Z,94647.00
2023-06-29T10:56:47.878Z,94645.00
2023-06-29T10:57:48.027Z,94644.00
2023-06-29T10:58:47.925Z,94640.00
2023-06-29T10:59:48.711Z,94640.00
2023-06-29T11:00:48.242Z,94640.00
2023-06-29T11:01:48.128Z,94638.00
2023-06-29T11:02:48.318Z,94638.00
2023-06-29T11:03:48.210Z,94630.00
2023-06-29T11:04:48.245Z,94626.00
2023-06-29T11:05:48.300Z,94626.00
2023-06-29T11:06:48.362Z,94624.00
2023-06-29T11:07:48.420Z,94626.00
2023-06-29T11:08:48.398Z,94624.00
2023-06-29T11:09:48.411Z,94620.00
2023-06-29T11:10:48.485Z,94616.00
2023-06-29T11:11:48.536Z,94614.00
2023-06-29T11:12:48.588Z,94612.00
2023-06-29T11:13:48.562Z,94610.00
2023-06-29T11:14:49.642Z,94608.00
2023-06-29T11:15:48.842Z,94606.00
2023-06-29T11:16:48.999Z,94606.00
2023-06-29T11:17:48.594Z,94604.00
2023-06-29T11:18:48.595Z,94604.00
2023-06-29T11:19:48.593Z,94602.00
2023-06-29T11:20:48.537Z,94602.00
2023-06-29T11:21:48.600Z,94602.00
2023-06-29T11:22:48.537Z,94596.00
2023-06-29T11:23:48.576Z,94594.00
2023-06-29T11:24:48.784Z,94594.00
2023-06-29T11:25:48.528Z,94592.00
2023-06-29T11:26:48.518Z,94589.00
2023-06-29T11:27:48.472Z,94587.00
2023-06-29T11:28:48.518Z,94587.00
2023-06-29T11:29:48.487Z,94583.00
2023-06-29T11:30:50.943Z,94579.00
2023-06-29T11:31:48.537Z,94583.00
2023-06-29T11:32:48.503Z,94581.00
2023-06-29T11:33:48.459Z,94577.00
2023-06-29T11:34:48.519Z,94577.00
2023-06-29T11:35:48.567Z,94579.00
2023-06-29T11:36:59.765Z,94575.00
2023-06-29T11:37:49.466Z,94573.00
2023-06-29T11:38:48.430Z,94577.00
2023-06-29T11:39:48.592Z,94573.00
2023-06-29T11:40:48.459Z,94573.00
2023-06-29T11:41:48.415Z,94571.00
2023-06-29T11:42:48.551Z,94569.00
2023-06-29T11:43:48.414Z,94563.00
2023-06-29T11:44:48.384Z,94563.00
2023-06-29T11:45:48.762Z,94563.00
2023-06-29T11:46:54.838Z,94563.00
2023-06-29T11:47:49.526Z,94557.00
2023-06-29T11:48:48.545Z,94559.00
2023-06-29T11:49:48.492Z,94553.00
2023-06-29T11:50:48.524Z,94552.00
2023-06-29T11:51:48.525Z,94552.00
2023-06-29T11:52:48.522Z,94548.00
2023-06-29T11:53:48.522Z,94548.00
2023-06-29T11:54:48.475Z,94546.00
2023-06-29T11:55:48.545Z,94546.00